Time;durP1;ratioP1;P1;durP2;ratioP2;P2;SDS_P1;SDS_P2;PMS_P1;PMS_P2;Temp;Humidity;BMP_temperature;BMP_pressure;BME280_temperature;BME280_humidity;BME280_pressure;Samples;Min_cycle;Max_cycle;Signal;HPM_P1;HPM_P2
2022/09/24 00:00:27;;;;;;;;;;;20.20;66.70;;;;;;5022481;28;1956;-70
2022/09/24 00:02:53;;;;;;;;;;;20.20;66.80;;;;;;5027416;28;807;-70
2022/09/24 00:05:18;;;;;;;;;;;20.20;66.80;;;;;;5024812;28;1257;-71
2022/09/24 00:07:44;;;;;;;;;;;20.20;66.80;;;;;;5025465;28;877;-71
2022/09/24 00:10:09;;;;;;;;;;;20.20;66.80;;;;;;5023474;28;863;-71
2022/09/24 00:12:36;;;;;;;;;;;20.20;66.80;;;;;;5023066;28;851;-72
2022/09/24 00:15:02;;;;;;;;;;;20.20;66.80;;;;;;5025553;28;1255;-71
2022/09/24 00:17:27;;;;;;;;;;;20.20;66.80;;;;;;5021356;28;875;-71
2022/09/24 00:19:53;;;;;;;;;;;20.20;66.90;;;;;;5019260;28;1957;-71
2022/09/24 00:22:18;;;;;;;;;;;20.20;66.90;;;;;;5019367;28;788;-71
2022/09/24 00:27:28;;;;;;;;;;;20.20;66.90;;;;;;5018547;28;838;-71
2022/09/24 00:29:53;;;;;;;;;;;20.20;67.00;;;;;;5020452;28;1288;-71
2022/09/24 00:32:18;;;;;;;;;;;20.20;66.90;;;;;;5021960;28;1432;-71
2022/09/24 00:34:44;;;;;;;;;;;20.20;66.90;;;;;;5019210;28;1559;-71
2022/09/24 00:37:09;;;;;;;;;;;20.20;67.00;;;;;;5021638;28;792;-71
2022/09/24 00:39:35;;;;;;;;;;;20.20;67.00;;;;;;5021276;28;1910;-69
2022/09/24 00:42:00;;;;;;;;;;;20.20;67.00;;;;;;5021313;28;857;-70
2022/09/24 00:44:44;;;;;;;;;;;20.20;67.00;;;;;;5021781;28;1307;-70
2022/09/24 00:47:20;;;;;;;;;;;20.20;67.10;;;;;;5027732;28;839;-70
2022/09/24 00:49:46;;;;;;;;;;;20.20;67.00;;;;;;5024837;28;1179;-70
2022/09/24 00:52:12;;;;;;;;;;;20.20;67.00;;;;;;5020895;28;995;-70
2022/09/24 00:54:37;;;;;;;;;;;20.20;67.00;;;;;;5025076;28;1351;-70
2022/09/24 00:57:03;;;;;;;;;;;20.20;67.10;;;;;;5020088;28;798;-70
2022/09/24 00:59:28;;;;;;;;;;;20.20;67.10;;;;;;5016648;28;1906;-70
2022/09/24 01:01:56;;;;;;;;;;;20.20;67.10;;;;;;5018492;28;827;-70
2022/09/24 01:04:21;;;;;;;;;;;20.20;67.10;;;;;;5023066;28;1355;-70
2022/09/24 01:06:47;;;;;;;;;;;20.20;67.10;;;;;;5020675;28;1045;-70
2022/09/24 01:09:13;;;;;;;;;;;20.20;67.00;;;;;;5019157;28;938;-69
2022/09/24 01:11:46;;;;;;;;;;;20.20;67.10;;;;;;5019337;28;1002;-70
2022/09/24 01:14:31;;;;;;;;;;;20.20;67.10;;;;;;5022544;28;1725;-70
2022/09/24 01:16:57;;;;;;;;;;;20.20;68.00;;;;;;5021668;28;834;-70
2022/09/24 01:19:27;;;;;;;;;;;20.20;67.20;;;;;;5022894;28;1871;-69
2022/09/24 01:21:55;;;;;;;;;;;20.20;67.20;;;;;;5029694;28;804;-69
2022/09/24 01:24:36;;;;;;;;;;;20.20;67.20;;;;;;5018053;28;1332;-71
2022/09/24 01:27:06;;;;;;;;;;;20.20;67.20;;;;;;5019841;28;903;-71
2022/09/24 01:29:36;;;;;;;;;;;20.20;67.20;;;;;;5019802;28;1465;-71
2022/09/24 01:32:04;;;;;;;;;;;20.20;67.20;;;;;;5020430;28;926;-71
2022/09/24 01:34:32;;;;;;;;;;;20.20;67.20;;;;;;5018826;28;1255;-71
2022/09/24 01:36:58;;;;;;;;;;;20.20;67.20;;;;;;5023297;28;1279;-71
2022/09/24 01:39:24;;;;;;;;;;;20.20;67.30;;;;;;5022352;28;1957;-70
2022/09/24 01:41:49;;;;;;;;;;;20.20;67.30;;;;;;5021676;28;1058;-70
2022/09/24 01:44:17;;;;;;;;;;;20.20;67.20;;;;;;5018301;28;1258;-70
2022/09/24 01:46:42;;;;;;;;;;;20.20;67.20;;;;;;5021536;28;967;-70
2022/09/24 01:49:07;;;;;;;;;;;20.30;67.40;;;;;;5020150;28;1006;-71
2022/09/24 01:51:34;;;;;;;;;;;20.20;67.20;;;;;;5026073;28;898;-70
2022/09/24 01:54:03;;;;;;;;;;;20.20;67.30;;;;;;5020652;28;994;-70
2022/09/24 01:56:29;;;;;;;;;;;20.20;67.30;;;;;;5020299;28;1267;-70
2022/09/24 01:59:04;;;;;;;;;;;20.20;67.30;;;;;;5023336;28;879;-71
2022/09/24 02:01:34;;;;;;;;;;;20.20;67.40;;;;;;5003881;28;1922;-69
2022/09/24 02:04:05;;;;;;;;;;;20.20;67.30;;;;;;5020101;28;1109;-69
2022/09/24 02:06:32;;;;;;;;;;;20.20;67.30;;;;;;5020340;28;1237;-69
2022/09/24 02:09:00;;;;;;;;;;;20.20;67.40;;;;;;5016994;28;1007;-69
2022/09/24 02:11:27;;;;;;;;;;;20.20;67.30;;;;;;5019879;28;1484;-69
2022/09/24 02:13:52;;;;;;;;;;;20.20;67.40;;;;;;5020508;28;883;-70
2022/09/24 02:16:19;;;;;;;;;;;20.20;67.50;;;;;;5020310;28;1352;-69
2022/09/24 02:18:45;;;;;;;;;;;20.20;67.50;;;;;;5021908;28;1086;-69
2022/09/24 02:21:12;;;;;;;;;;;20.20;67.40;;;;;;5019830;28;1961;-69
2022/09/24 02:23:39;;;;;;;;;;;20.20;67.50;;;;;;5027883;28;945;-70
2022/09/24 02:26:04;;;;;;;;;;;20.20;67.50;;;;;;5016622;28;1218;-69
2022/09/24 02:28:31;;;;;;;;;;;20.20;67.50;;;;;;5019583;28;1397;-69
2022/09/24 02:31:07;;;;;;;;;;;20.20;67.40;;;;;;5023178;28;1438;-69
2022/09/24 02:36:17;;;;;;;;;;;20.20;67.50;;;;;;5019828;28;1414;-69
2022/09/24 02:38:45;;;;;;;;;;;20.20;67.50;;;;;;5020286;28;1385;-69
2022/09/24 02:41:10;;;;;;;;;;;20.20;67.50;;;;;;5019933;28;1910;-69
2022/09/24 02:43:35;;;;;;;;;;;20.20;68.30;;;;;;5017669;28;1490;-70
2022/09/24 02:46:01;;;;;;;;;;;20.20;67.60;;;;;;5019078;28;1366;-69
2022/09/24 02:48:26;;;;;;;;;;;20.20;68.30;;;;;;5021787;28;1169;-69
2022/09/24 02:50:52;;;;;;;;;;;20.20;67.60;;;;;;5020565;28;956;-70
2022/09/24 02:53:18;;;;;;;;;;;20.20;67.50;;;;;;5015559;28;832;-69
2022/09/24 02:55:43;;;;;;;;;;;20.20;67.50;;;;;;5020453;28;1290;-69
2022/09/24 02:58:09;;;;;;;;;;;20.20;67.50;;;;;;5023028;28;998;-69
2022/09/24 03:00:34;;;;;;;;;;;20.20;67.60;;;;;;5015551;28;1969;-69
2022/09/24 03:03:00;;;;;;;;;;;20.20;67.60;;;;;;5019144;28;1015;-69
2022/09/24 03:05:25;;;;;;;;;;;20.20;67.60;;;;;;5019206;28;1321;-69
2022/09/24 03:07:51;;;;;;;;;;;20.20;67.60;;;;;;5018122;28;813;-68
2022/09/24 03:10:16;;;;;;;;;;;20.20;67.60;;;;;;5016779;28;935;-69
2022/09/24 03:12:42;;;;;;;;;;;20.20;67.60;;;;;;5017684;28;827;-69
2022/09/24 03:15:08;;;;;;;;;;;20.20;67.60;;;;;;5016586;28;1225;-69
2022/09/24 03:17:33;;;;;;;;;;;20.20;67.60;;;;;;5018985;28;779;-68
2022/09/24 03:19:59;;;;;;;;;;;20.20;67.60;;;;;;5020348;28;2199;-69
2022/09/24 03:22:24;;;;;;;;;;;20.20;67.60;;;;;;5023223;28;1972;-69
2022/09/24 03:24:50;;;;;;;;;;;20.20;67.70;;;;;;5009185;28;4912;-70
2022/09/24 03:27:15;;;;;;;;;;;20.20;67.70;;;;;;5016219;28;4260;-69
2022/09/24 03:32:25;;;;;;;;;;;20.20;67.70;;;;;;5016310;28;4440;-69
2022/09/24 03:34:51;;;;;;;;;;;20.20;67.70;;;;;;5017145;28;4094;-69
2022/09/24 03:37:16;;;;;;;;;;;20.20;67.70;;;;;;5010538;28;4493;-69
2022/09/24 03:39:42;;;;;;;;;;;20.20;67.70;;;;;;5017448;28;4420;-69
2022/09/24 03:42:07;;;;;;;;;;;20.20;67.70;;;;;;5012636;28;4251;-70
2022/09/24 03:44:33;;;;;;;;;;;20.20;67.70;;;;;;5019607;28;4384;-70
2022/09/24 03:46:58;;;;;;;;;;;20.20;67.70;;;;;;5019348;28;3577;-68
2022/09/24 03:49:24;;;;;;;;;;;20.20;67.70;;;;;;5019285;28;1018;-68
2022/09/24 03:51:50;;;;;;;;;;;20.20;67.70;;;;;;5017727;28;920;-69
2022/09/24 03:54:15;;;;;;;;;;;20.20;67.70;;;;;;5022136;28;1294;-70
2022/09/24 03:56:41;;;;;;;;;;;20.20;67.80;;;;;;5025000;28;947;-69
2022/09/24 03:59:07;;;;;;;;;;;20.20;67.80;;;;;;5018167;28;1361;-68
2022/09/24 04:01:36;;;;;;;;;;;20.20;67.80;;;;;;5013591;28;1961;-71
2022/09/24 04:04:02;;;;;;;;;;;20.20;67.80;;;;;;5018250;28;887;-69
2022/09/24 04:06:27;;;;;;;;;;;20.20;67.80;;;;;;5014776;28;1157;-70
2022/09/24 04:08:53;;;;;;;;;;;20.20;67.70;;;;;;5018512;28;844;-68
2022/09/24 04:11:18;;;;;;;;;;;20.20;67.80;;;;;;5022373;28;878;-68
2022/09/24 04:13:44;;;;;;;;;;;20.20;67.80;;;;;;5022770;28;884;-69
2022/09/24 04:16:09;;;;;;;;;;;20.20;67.80;;;;;;5020112;28;1308;-69
2022/09/24 04:18:35;;;;;;;;;;;20.20;67.80;;;;;;5021173;28;875;-68
2022/09/24 04:21:00;;;;;;;;;;;20.20;67.80;;;;;;5026136;28;1882;-69
2022/09/24 04:23:26;;;;;;;;;;;20.20;67.80;;;;;;5021173;28;956;-68
2022/09/24 04:25:53;;;;;;;;;;;20.20;67.90;;;;;;5024608;28;1686;-70
2022/09/24 04:28:18;;;;;;;;;;;20.20;68.60;;;;;;5021196;28;1016;-71
2022/09/24 04:30:43;;;;;;;;;;;20.20;67.80;;;;;;5020833;28;989;-69
2022/09/24 04:33:09;;;;;;;;;;;20.20;67.90;;;;;;5021976;28;1374;-69
2022/09/24 04:35:35;;;;;;;;;;;20.20;67.90;;;;;;5020676;28;1260;-71
2022/09/24 04:38:00;;;;;;;;;;;20.20;67.90;;;;;;5029213;28;844;-67
2022/09/24 04:40:26;;;;;;;;;;;20.20;67.90;;;;;;5024366;28;1902;-68
2022/09/24 04:42:51;;;;;;;;;;;20.20;67.90;;;;;;5018410;28;1018;-67
2022/09/24 04:45:19;;;;;;;;;;;20.20;67.90;;;;;;5018959;28;1327;-67
2022/09/24 04:48:05;;;;;;;;;;;20.20;67.90;;;;;;5023519;28;828;-69
2022/09/24 04:50:33;;;;;;;;;;;20.20;68.00;;;;;;5022580;28;1104;-69
2022/09/24 04:52:59;;;;;;;;;;;20.20;68.00;;;;;;5026938;28;904;-69
2022/09/24 04:55:26;;;;;;;;;;;20.20;67.90;;;;;;5013369;28;4248;-69
2022/09/24 04:57:51;;;;;;;;;;;20.20;67.90;;;;;;5016293;28;1440;-72
2022/09/24 05:00:17;;;;;;;;;;;20.20;67.90;;;;;;5026230;28;1957;-71
2022/09/24 05:02:43;;;;;;;;;;;20.20;68.00;;;;;;5014320;28;919;-72
2022/09/24 05:05:10;;;;;;;;;;;20.20;68.00;;;;;;5016154;28;1232;-70
2022/09/24 05:07:35;;;;;;;;;;;20.20;68.00;;;;;;5018614;28;814;-71
2022/09/24 05:10:01;;;;;;;;;;;20.20;68.00;;;;;;5021183;28;1152;-71
2022/09/24 05:12:26;;;;;;;;;;;20.20;68.00;;;;;;5018426;28;807;-71
2022/09/24 05:14:52;;;;;;;;;;;20.20;68.00;;;;;;5019859;28;1331;-71
2022/09/24 05:17:17;;;;;;;;;;;20.20;68.00;;;;;;5014211;28;1014;-71
2022/09/24 05:19:43;;;;;;;;;;;20.20;68.00;;;;;;5015206;28;1902;-70
2022/09/24 05:22:08;;;;;;;;;;;20.20;68.10;;;;;;5026796;28;995;-69
2022/09/24 05:24:34;;;;;;;;;;;20.20;68.00;;;;;;5017381;28;4522;-70
2022/09/24 05:27:08;;;;;;;;;;;20.20;68.10;;;;;;5017868;28;4106;-70
2022/09/24 05:29:37;;;;;;;;;;;20.20;68.10;;;;;;5020089;28;3526;-71
2022/09/24 05:32:04;;;;;;;;;;;20.20;68.10;;;;;;5010296;28;4757;-70
2022/09/24 05:34:30;;;;;;;;;;;20.20;68.10;;;;;;5019991;28;4235;-70
2022/09/24 05:36:55;;;;;;;;;;;20.20;68.90;;;;;;5020904;28;754;-71
2022/09/24 05:39:21;;;;;;;;;;;20.20;68.10;;;;;;5018190;28;827;-67
2022/09/24 05:41:46;;;;;;;;;;;20.20;68.10;;;;;;5015372;28;1910;-68
2022/09/24 05:44:12;;;;;;;;;;;20.20;68.10;;;;;;5009455;28;4525;-70
2022/09/24 05:46:37;;;;;;;;;;;20.20;68.20;;;;;;5016358;28;1825;-70
2022/09/24 05:49:03;;;;;;;;;;;20.20;68.20;;;;;;5020864;28;1069;-70
2022/09/24 05:51:28;;;;;;;;;;;20.20;68.20;;;;;;5023112;28;1591;-70
2022/09/24 05:53:54;;;;;;;;;;;20.20;68.20;;;;;;5022141;28;960;-70
2022/09/24 05:56:19;;;;;;;;;;;20.20;68.10;;;;;;5025595;28;1345;-70
2022/09/24 05:58:47;;;;;;;;;;;20.20;68.20;;;;;;5018689;28;904;-70
2022/09/24 06:01:12;;;;;;;;;;;20.20;68.20;;;;;;5019019;28;1971;-70
2022/09/24 06:03:38;;;;;;;;;;;20.20;68.20;;;;;;5016692;28;859;-70
2022/09/24 06:06:03;;;;;;;;;;;20.20;68.20;;;;;;5015169;28;1299;-70
2022/09/24 06:08:29;;;;;;;;;;;20.20;68.10;;;;;;5021786;28;864;-70
2022/09/24 06:11:01;;;;;;;;;;;20.20;68.20;;;;;;5021158;28;1804;-68
2022/09/24 06:13:27;;;;;;;;;;;20.20;68.20;;;;;;5028136;28;1559;-67
2022/09/24 06:15:58;;;;;;;;;;;20.20;68.30;;;;;;5011279;28;4462;-67
2022/09/24 06:18:24;;;;;;;;;;;20.20;68.20;;;;;;5035856;28;4557;-67
2022/09/24 06:20:49;;;;;;;;;;;20.20;68.20;;;;;;5037152;28;4071;-68
2022/09/24 06:23:15;;;;;;;;;;;20.20;68.20;;;;;;5032444;28;4295;-69
2022/09/24 06:25:40;;;;;;;;;;;20.20;68.20;;;;;;5040390;28;1271;-69
2022/09/24 06:28:06;;;;;;;;;;;20.20;68.20;;;;;;5038046;28;927;-69
2022/09/24 06:30:32;;;;;;;;;;;20.20;68.20;;;;;;5039867;28;1375;-68
2022/09/24 06:33:01;;;;;;;;;;;20.20;68.20;;;;;;5042339;28;1504;-68
2022/09/24 06:35:26;;;;;;;;;;;20.20;68.30;;;;;;5036751;28;1348;-68
2022/09/24 06:37:51;;;;;;;;;;;20.20;68.30;;;;;;5037565;28;883;-68
2022/09/24 06:40:17;;;;;;;;;;;20.20;68.30;;;;;;5041236;28;1902;-68
2022/09/24 06:42:42;;;;;;;;;;;20.20;68.40;;;;;;5035832;28;768;-68
2022/09/24 06:45:08;;;;;;;;;;;20.20;68.30;;;;;;5039221;28;1309;-68
2022/09/24 06:47:34;;;;;;;;;;;20.20;68.30;;;;;;5038566;28;1045;-69
2022/09/24 06:49:59;;;;;;;;;;;20.20;68.30;;;;;;5038645;28;1657;-68
2022/09/24 06:52:24;;;;;;;;;;;20.20;68.40;;;;;;5039427;28;1347;-68
2022/09/24 06:54:50;;;;;;;;;;;20.20;68.30;;;;;;5039197;28;1381;-68
2022/09/24 06:57:15;;;;;;;;;;;20.20;68.30;;;;;;5040515;28;830;-69
2022/09/24 06:59:41;;;;;;;;;;;20.20;68.30;;;;;;5039010;28;1906;-69
2022/09/24 07:02:08;;;;;;;;;;;20.20;68.30;;;;;;5039930;28;2136;-70
2022/09/24 07:04:33;;;;;;;;;;;20.20;68.30;;;;;;5038678;28;1386;-69
2022/09/24 07:09:42;;;;;;;;;;;20.20;68.30;;;;;;5038856;28;914;-70
2022/09/24 07:12:08;;;;;;;;;;;20.20;68.40;;;;;;5039615;28;832;-69
2022/09/24 07:14:33;;;;;;;;;;;20.20;68.40;;;;;;5036235;28;1363;-70
2022/09/24 07:16:59;;;;;;;;;;;20.20;68.40;;;;;;5038101;28;843;-70
2022/09/24 07:19:24;;;;;;;;;;;20.20;68.40;;;;;;5039323;28;808;-69
2022/09/24 07:21:50;;;;;;;;;;;20.20;68.40;;;;;;5036460;28;1953;-70
2022/09/24 07:24:15;;;;;;;;;;;20.20;68.40;;;;;;5036972;28;1245;-69
2022/09/24 07:26:41;;;;;;;;;;;20.20;68.40;;;;;;5041097;28;977;-69
2022/09/24 07:29:06;;;;;;;;;;;20.20;68.40;;;;;;5041864;28;1270;-69
2022/09/24 07:31:32;;;;;;;;;;;20.20;68.40;;;;;;5038884;28;1423;-69
2022/09/24 07:33:58;;;;;;;;;;;20.20;68.50;;;;;;5032988;28;772;-69
2022/09/24 07:36:23;;;;;;;;;;;20.20;68.40;;;;;;5039783;28;1204;-70
2022/09/24 07:38:49;;;;;;;;;;;20.20;68.40;;;;;;5037688;28;860;-69
2022/09/24 07:41:14;;;;;;;;;;;20.20;68.40;;;;;;5039456;28;1962;-69
2022/09/24 07:43:41;;;;;;;;;;;20.20;68.40;;;;;;5040989;28;789;-68
2022/09/24 07:46:06;;;;;;;;;;;20.20;68.50;;;;;;5042190;28;1419;-68
2022/09/24 07:48:31;;;;;;;;;;;20.20;68.50;;;;;;5042806;28;824;-69
2022/09/24 07:50:57;;;;;;;;;;;20.20;68.50;;;;;;5042438;28;927;-69
2022/09/24 07:53:23;;;;;;;;;;;20.20;68.50;;;;;;5041340;28;891;-69
2022/09/24 07:55:48;;;;;;;;;;;20.20;68.50;;;;;;5039446;28;1279;-69
2022/09/24 07:58:14;;;;;;;;;;;20.20;68.50;;;;;;5041992;28;867;-69
2022/09/24 08:00:39;;;;;;;;;;;20.20;68.50;;;;;;5043534;28;1914;-69
2022/09/24 08:03:05;;;;;;;;;;;20.20;68.40;;;;;;5042199;28;982;-68
2022/09/24 08:05:32;;;;;;;;;;;20.20;68.50;;;;;;5039453;28;1508;-70
2022/09/24 08:07:57;;;;;;;;;;;20.20;68.50;;;;;;5040135;28;837;-70
2022/09/24 08:10:23;;;;;;;;;;;20.20;68.50;;;;;;5050001;28;864;-70
2022/09/24 08:12:49;;;;;;;;;;;20.20;68.50;;;;;;5040547;28;1213;-70
2022/09/24 08:15:14;;;;;;;;;;;20.20;68.50;;;;;;5040212;28;1223;-70
2022/09/24 08:17:40;;;;;;;;;;;20.20;68.60;;;;;;5038018;28;831;-69
2022/09/24 08:20:05;;;;;;;;;;;20.20;68.50;;;;;;5043582;28;1894;-69
2022/09/24 08:22:31;;;;;;;;;;;20.20;68.60;;;;;;5041790;28;818;-69
2022/09/24 08:24:57;;;;;;;;;;;20.20;68.70;;;;;;5039823;28;1354;-69
2022/09/24 08:27:24;;;;;;;;;;;20.30;68.70;;;;;;5037324;28;883;-69
2022/09/24 08:29:50;;;;;;;;;;;20.30;68.80;;;;;;5042529;28;1379;-69
2022/09/24 08:32:16;;;;;;;;;;;20.40;68.90;;;;;;5043517;28;1379;-70
2022/09/24 08:34:42;;;;;;;;;;;20.50;68.70;;;;;;5037200;28;1364;-69
2022/09/24 08:37:07;;;;;;;;;;;20.50;68.50;;;;;;5040263;28;889;-69
2022/09/24 08:39:33;;;;;;;;;;;20.60;68.20;;;;;;5042368;28;1188;-70
2022/09/24 08:41:59;;;;;;;;;;;20.70;68.00;;;;;;5037314;28;1890;-69
2022/09/24 08:47:22;;;;;;;;;;;20.90;67.30;;;;;;5049671;28;778;-68
2022/09/24 08:49:48;;;;;;;;;;;20.90;66.90;;;;;;5038818;28;989;-68
2022/09/24 08:52:13;;;;;;;;;;;21.00;66.70;;;;;;5038870;28;1105;-68
2022/09/24 08:54:38;;;;;;;;;;;21.10;66.60;;;;;;5040435;28;1317;-68
2022/09/24 08:57:04;;;;;;;;;;;21.10;66.40;;;;;;5041141;28;922;-68
2022/09/24 08:59:33;;;;;;;;;;;21.20;66.30;;;;;;5048504;28;931;-68
2022/09/24 09:02:12;;;;;;;;;;;21.30;66.20;;;;;;5037933;28;1969;-68
2022/09/24 09:04:53;;;;;;;;;;;21.30;66.00;;;;;;5041720;28;1252;-69
2022/09/24 09:07:29;;;;;;;;;;;21.40;65.80;;;;;;5041866;28;949;-68
2022/09/24 09:09:57;;;;;;;;;;;21.50;65.60;;;;;;5047728;28;907;-68
2022/09/24 09:12:43;;;;;;;;;;;21.60;65.30;;;;;;5030888;28;4436;-68
2022/09/24 09:15:10;;;;;;;;;;;21.70;65.10;;;;;;5036340;28;1364;-68
2022/09/24 09:17:35;;;;;;;;;;;21.80;64.80;;;;;;5049946;28;990;-68
2022/09/24 09:20:02;;;;;;;;;;;21.90;64.30;;;;;;5039783;28;1961;-69
2022/09/24 09:22:29;;;;;;;;;;;22.00;63.90;;;;;;5036617;28;808;-68
2022/09/24 09:24:54;;;;;;;;;;;22.10;63.60;;;;;;5037330;28;1269;-69
2022/09/24 09:27:20;;;;;;;;;;;22.20;63.30;;;;;;5035220;28;840;-68
2022/09/24 09:29:47;;;;;;;;;;;22.30;63.10;;;;;;5071133;28;1409;-68
2022/09/24 09:32:12;;;;;;;;;;;22.40;62.90;;;;;;5038234;28;3005;-68
2022/09/24 09:34:50;;;;;;;;;;;22.40;62.60;;;;;;5040781;28;1444;-68
2022/09/24 09:37:24;;;;;;;;;;;22.50;62.40;;;;;;5047989;28;1018;-68
2022/09/24 09:39:53;;;;;;;;;;;22.50;62.90;;;;;;5037884;28;1996;-68
2022/09/24 09:42:27;;;;;;;;;;;22.60;61.80;;;;;;5037235;28;847;-68
2022/09/24 09:44:53;;;;;;;;;;;22.60;61.70;;;;;;5041494;28;1353;-68
2022/09/24 09:47:24;;;;;;;;;;;22.70;61.60;;;;;;5040004;28;845;-68
2022/09/24 09:49:50;;;;;;;;;;;22.70;61.50;;;;;;5042647;28;886;-67
2022/09/24 09:52:18;;;;;;;;;;;22.70;61.40;;;;;;5039567;28;2138;-67
2022/09/24 09:54:44;;;;;;;;;;;22.70;61.40;;;;;;5040613;28;1354;-68
2022/09/24 09:57:20;;;;;;;;;;;22.70;62.10;;;;;;5042185;28;1402;-68
2022/09/24 09:59:49;;;;;;;;;;;22.70;61.40;;;;;;5037774;28;1914;-68
2022/09/24 10:02:20;;;;;;;;;;;22.70;61.40;;;;;;5035465;28;1442;-69
2022/09/24 10:04:46;;;;;;;;;;;22.70;61.40;;;;;;5035306;28;1394;-69
2022/09/24 10:07:12;;;;;;;;;;;22.70;61.50;;;;;;5036076;28;836;-68
2022/09/24 10:09:38;;;;;;;;;;;22.70;61.60;;;;;;5039430;28;1022;-69
2022/09/24 10:12:15;;;;;;;;;;;22.70;61.70;;;;;;5038700;28;1766;-68
2022/09/24 10:14:41;;;;;;;;;;;22.60;61.60;;;;;;5033711;28;1301;-70
2022/09/24 10:17:09;;;;;;;;;;;22.70;61.90;;;;;;5046529;28;885;-70
2022/09/24 10:19:34;;;;;;;;;;;22.60;61.80;;;;;;5040640;28;2159;-69
2022/09/24 10:22:20;;;;;;;;;;;22.60;61.90;;;;;;5041823;28;1953;-68
2022/09/24 10:24:45;;;;;;;;;;;22.60;61.90;;;;;;5035234;28;1288;-68
2022/09/24 10:27:11;;;;;;;;;;;22.60;62.00;;;;;;5034126;28;1002;-69
2022/09/24 10:32:21;;;;;;;;;;;22.60;62.10;;;;;;5039115;28;1179;-69
2022/09/24 10:34:59;;;;;;;;;;;22.50;62.20;;;;;;5046477;28;1292;-70
2022/09/24 10:37:25;;;;;;;;;;;22.50;62.20;;;;;;5036043;28;831;-70
2022/09/24 10:39:58;;;;;;;;;;;22.50;62.20;;;;;;5023519;28;1909;-70
2022/09/24 10:42:24;;;;;;;;;;;22.50;62.30;;;;;;5033516;28;827;-70
2022/09/24 10:44:49;;;;;;;;;;;22.50;62.40;;;;;;5038699;28;1358;-69
2022/09/24 10:47:30;;;;;;;;;;;22.40;62.40;;;;;;5035663;28;943;-70
2022/09/24 10:49:59;;;;;;;;;;;22.40;62.50;;;;;;5037687;28;1085;-70
2022/09/24 10:52:25;;;;;;;;;;;22.40;62.60;;;;;;5040100;28;915;-70
2022/09/24 10:54:50;;;;;;;;;;;22.30;62.60;;;;;;5034254;28;1401;-70
2022/09/24 10:57:19;;;;;;;;;;;22.40;62.70;;;;;;5037834;28;959;-70
2022/09/24 11:00:03;;;;;;;;;;;22.30;62.70;;;;;;5039594;28;1906;-70
2022/09/24 11:02:43;;;;;;;;;;;22.30;62.80;;;;;;5039276;28;1029;-69
2022/09/24 11:05:14;;;;;;;;;;;22.30;62.90;;;;;;5041155;28;1188;-69
2022/09/24 11:07:45;;;;;;;;;;;22.20;62.90;;;;;;5038555;28;1920;-70
2022/09/24 11:10:20;;;;;;;;;;;22.20;63.00;;;;;;5042375;28;1809;-68
2022/09/24 11:13:06;;;;;;;;;;;22.20;63.10;;;;;;5039643;28;1222;-68
2022/09/24 11:15:49;;;;;;;;;;;22.20;63.90;;;;;;5043821;28;1448;-69
2022/09/24 11:18:26;;;;;;;;;;;22.20;63.40;;;;;;5052740;28;803;-69
2022/09/24 11:21:01;;;;;;;;;;;22.10;63.40;;;;;;5042048;28;1906;-69
2022/09/24 11:23:36;;;;;;;;;;;22.10;63.40;;;;;;5050893;28;809;-69
2022/09/24 11:26:12;;;;;;;;;;;22.10;63.50;;;;;;5042584;28;1333;-69
2022/09/24 11:28:57;;;;;;;;;;;22.10;63.60;;;;;;5033979;28;1160;-69
2022/09/24 11:31:43;;;;;;;;;;;22.10;63.80;;;;;;5040315;28;1297;-68
2022/09/24 11:34:08;;;;;;;;;;;22.00;63.80;;;;;;5038928;28;856;-68
2022/09/24 11:36:38;;;;;;;;;;;22.00;63.90;;;;;;5046478;28;1280;-68
2022/09/24 11:39:03;;;;;;;;;;;22.00;64.00;;;;;;5041281;28;862;-68
2022/09/24 11:41:28;;;;;;;;;;;21.90;64.00;;;;;;5040724;28;1902;-67
2022/09/24 11:43:59;;;;;;;;;;;21.90;64.10;;;;;;5036170;28;844;-67
2022/09/24 11:46:41;;;;;;;;;;;21.90;64.20;;;;;;5048904;28;1288;-68
2022/09/24 11:49:07;;;;;;;;;;;21.90;64.30;;;;;;5040260;28;903;-68
2022/09/24 11:51:47;;;;;;;;;;;21.90;64.40;;;;;;5042814;28;834;-68
2022/09/24 11:54:19;;;;;;;;;;;21.90;64.40;;;;;;5038854;28;1268;-68
2022/09/24 11:56:46;;;;;;;;;;;21.80;64.50;;;;;;5039954;28;816;-68
2022/09/24 11:59:14;;;;;;;;;;;21.80;64.50;;;;;;5041497;28;1388;-68
2022/09/24 12:01:45;;;;;;;;;;;21.80;64.50;;;;;;5038047;28;1910;-68
2022/09/24 12:04:18;;;;;;;;;;;21.70;64.50;;;;;;5070551;28;1357;-69
2022/09/24 12:06:51;;;;;;;;;;;21.80;64.70;;;;;;5041953;28;908;-69
2022/09/24 12:09:25;;;;;;;;;;;21.70;64.70;;;;;;5040533;28;839;-68
2022/09/24 12:11:56;;;;;;;;;;;21.70;64.80;;;;;;5039384;28;1042;-68
2022/09/24 12:14:22;;;;;;;;;;;21.70;64.80;;;;;;5036939;28;1359;-68
2022/09/24 12:16:49;;;;;;;;;;;21.70;64.90;;;;;;5044180;28;791;-69
2022/09/24 12:19:16;;;;;;;;;;;21.70;64.90;;;;;;5040733;28;885;-69
2022/09/24 12:21:42;;;;;;;;;;;21.70;65.10;;;;;;5036333;28;1898;-69
2022/09/24 12:24:16;;;;;;;;;;;21.60;65.00;;;;;;5038091;28;800;-68
2022/09/24 12:26:41;;;;;;;;;;;21.60;65.00;;;;;;5042728;28;819;-69
2022/09/24 12:35:07;;;;;;;;;;;21.60;65.20;;;;;;5042944;28;1315;-69
2022/09/24 12:37:34;;;;;;;;;;;21.60;65.30;;;;;;5041479;28;915;-69
2022/09/24 12:40:12;;;;;;;;;;;21.50;65.30;;;;;;5038982;28;1910;-68
2022/09/24 12:42:48;;;;;;;;;;;21.50;65.30;;;;;;5043436;28;1056;-69
2022/09/24 12:45:14;;;;;;;;;;;21.50;65.40;;;;;;5041501;28;1347;-69
2022/09/24 12:47:44;;;;;;;;;;;21.50;65.50;;;;;;5045988;28;973;-68
2022/09/24 12:50:20;;;;;;;;;;;21.50;65.50;;;;;;5031459;28;4573;-70
2022/09/24 12:52:46;;;;;;;;;;;21.50;65.60;;;;;;5033313;28;4143;-69
2022/09/24 12:55:18;;;;;;;;;;;21.50;65.60;;;;;;5042647;28;3794;-69
2022/09/24 12:57:49;;;;;;;;;;;21.40;65.60;;;;;;5040991;28;4171;-69
2022/09/24 13:00:33;;;;;;;;;;;21.40;65.60;;;;;;5034061;28;4271;-71
2022/09/24 13:02:58;;;;;;;;;;;21.40;65.70;;;;;;5039981;28;4191;-70
2022/09/24 13:05:26;;;;;;;;;;;21.40;65.70;;;;;;5039611;28;4426;-71
2022/09/24 13:08:11;;;;;;;;;;;21.40;65.70;;;;;;5040012;28;4759;-69
2022/09/24 13:10:37;;;;;;;;;;;21.40;65.80;;;;;;5035678;28;1320;-68
2022/09/24 13:13:13;;;;;;;;;;;21.40;65.80;;;;;;5017850;28;4179;-72
2022/09/24 13:15:39;;;;;;;;;;;21.40;65.90;;;;;;5041536;28;4483;-70
2022/09/24 13:18:12;;;;;;;;;;;21.40;65.90;;;;;;5025135;28;4134;-69
2022/09/24 13:20:38;;;;;;;;;;;21.30;65.90;;;;;;5040270;28;1910;-69
2022/09/24 13:23:18;;;;;;;;;;;21.30;65.90;;;;;;5040967;28;853;-69
2022/09/24 13:26:03;;;;;;;;;;;21.30;66.00;;;;;;5040903;28;1288;-69
2022/09/24 13:28:54;;;;;;;;;;;21.30;66.00;;;;;;5030148;28;1851;-69
2022/09/24 13:31:22;;;;;;;;;;;21.30;66.00;;;;;;5039231;28;1510;-69
2022/09/24 13:34:02;;;;;;;;;;;21.30;66.10;;;;;;5037979;28;910;-71
2022/09/24 13:36:31;;;;;;;;;;;21.30;66.10;;;;;;5037343;28;1382;-70
2022/09/24 13:39:06;;;;;;;;;;;21.30;66.10;;;;;;5028374;28;4220;-69
2022/09/24 13:41:41;;;;;;;;;;;21.30;66.20;;;;;;5047213;28;2831;-69
2022/09/24 13:44:11;;;;;;;;;;;21.30;66.20;;;;;;5048842;28;2586;-70
2022/09/24 13:46:37;;;;;;;;;;;21.20;66.20;;;;;;5036581;28;982;-69
2022/09/24 13:49:06;;;;;;;;;;;21.20;66.20;;;;;;5023107;28;1161;-70
2022/09/24 13:51:32;;;;;;;;;;;21.20;66.20;;;;;;5036510;28;1018;-70
2022/09/24 13:54:05;;;;;;;;;;;21.20;66.30;;;;;;5035695;28;824;-70
2022/09/24 13:56:31;;;;;;;;;;;21.20;66.30;;;;;;5040079;28;1262;-70
2022/09/24 13:59:05;;;;;;;;;;;21.20;66.30;;;;;;5038199;28;892;-69
2022/09/24 14:01:33;;;;;;;;;;;21.20;66.40;;;;;;5041245;28;1984;-70
2022/09/24 14:04:00;;;;;;;;;;;21.20;66.40;;;;;;5037075;28;1232;-70
2022/09/24 14:06:32;;;;;;;;;;;21.20;66.40;;;;;;5038576;28;1339;-70
2022/09/24 14:08:59;;;;;;;;;;;21.20;66.50;;;;;;5036756;28;871;-70
2022/09/24 14:11:25;;;;;;;;;;;21.20;66.50;;;;;;5040272;28;850;-68
2022/09/24 14:13:51;;;;;;;;;;;21.10;66.50;;;;;;5036325;28;1520;-70
2022/09/24 14:16:17;;;;;;;;;;;21.10;66.50;;;;;;5035428;28;1339;-70
2022/09/24 14:18:43;;;;;;;;;;;21.10;66.60;;;;;;5028873;28;1331;-68
2022/09/24 14:21:20;;;;;;;;;;;21.10;66.60;;;;;;5050008;28;1955;-68
2022/09/24 14:23:47;;;;;;;;;;;21.10;66.60;;;;;;5036965;28;942;-68
2022/09/24 14:26:24;;;;;;;;;;;21.10;66.70;;;;;;5034432;28;1288;-68
2022/09/24 14:28:49;;;;;;;;;;;21.10;66.70;;;;;;5047202;28;1343;-68
2022/09/24 14:31:15;;;;;;;;;;;21.10;66.70;;;;;;5046749;28;931;-69
2022/09/24 14:33:40;;;;;;;;;;;21.10;66.80;;;;;;5037271;28;4083;-69
2022/09/24 14:36:08;;;;;;;;;;;21.10;66.80;;;;;;5038391;28;4033;-68
2022/09/24 14:38:34;;;;;;;;;;;21.10;66.80;;;;;;5037987;28;1948;-67
2022/09/24 14:41:13;;;;;;;;;;;21.10;66.80;;;;;;5026999;28;1979;-68
2022/09/24 14:43:46;;;;;;;;;;;21.10;66.80;;;;;;5025684;28;1258;-67
2022/09/24 14:46:11;;;;;;;;;;;21.00;66.80;;;;;;5022552;28;1978;-68
2022/09/24 14:48:37;;;;;;;;;;;21.10;66.90;;;;;;5041801;28;1358;-68
2022/09/24 14:51:02;;;;;;;;;;;21.00;66.90;;;;;;5040830;28;1311;-68
2022/09/24 14:53:28;;;;;;;;;;;21.00;66.90;;;;;;5037217;28;1858;-68
2022/09/24 14:55:54;;;;;;;;;;;21.00;66.90;;;;;;5037338;28;1428;-67
2022/09/24 14:58:28;;;;;;;;;;;21.00;67.00;;;;;;5039422;28;826;-68
2022/09/24 15:00:55;;;;;;;;;;;21.00;67.00;;;;;;5045147;28;1969;-69